Time;durP1;ratioP1;P1;durP2;ratioP2;P2;SDS_P1;SDS_P2;PMS_P1;PMS_P2;Temp;Humidity;BMP_temperature;BMP_pressure;BME280_temperature;BME280_humidity;BME280_pressure;Samples;Min_cycle;Max_cycle;Signal;HPM_P1;HPM_P2
2022/03/10 00:02:08;;;;;;;8.03;4.60;;;-0.30;89.70;;;;;;5048761;28;20677;-78
2022/03/10 00:04:37;;;;;;;7.33;3.90;;;-0.30;90.00;;;;;;5062233;28;20184;-78
2022/03/10 00:07:04;;;;;;;5.17;4.33;;;-0.40;89.90;;;;;;5058126;28;20207;-79
2022/03/10 00:09:32;;;;;;;4.43;4.03;;;-0.40;89.90;;;;;;5064065;28;20211;-78
2022/03/10 00:11:58;;;;;;;7.93;5.00;;;-0.50;90.30;;;;;;5052835;28;20187;-77
2022/03/10 00:14:24;;;;;;;5.77;3.93;;;-0.50;90.30;;;;;;5062592;28;20193;-79
2022/03/10 00:16:50;;;;;;;6.17;4.67;;;-0.60;90.90;;;;;;5060746;28;20175;-79
2022/03/10 00:19:16;;;;;;;3.13;2.90;;;-0.60;90.70;;;;;;5061224;28;20171;-77
2022/03/10 00:21:46;;;;;;;4.77;4.33;;;-0.60;90.50;;;;;;5059198;28;20202;-78
2022/03/10 00:24:14;;;;;;;6.43;4.03;;;-0.70;90.60;;;;;;5058848;28;21028;-79
2022/03/10 00:26:41;;;;;;;5.20;3.90;;;-0.70;90.60;;;;;;5055384;28;20180;-78
2022/03/10 00:29:07;;;;;;;4.43;3.87;;;-0.70;90.70;;;;;;5062515;28;20704;-78
2022/03/10 00:31:34;;;;;;;7.27;4.17;;;-0.80;90.80;;;;;;5062818;28;20194;-79
2022/03/10 00:34:02;;;;;;;4.80;4.30;;;-0.80;90.90;;;;;;5065798;28;20801;-78
2022/03/10 00:36:28;;;;;;;4.90;3.63;;;-0.80;91.20;;;;;;5056723;28;20207;-77
2022/03/10 00:38:54;;;;;;;3.70;3.33;;;-0.90;91.20;;;;;;5058243;28;20198;-80
2022/03/10 00:41:20;;;;;;;6.80;3.83;;;-0.90;91.00;;;;;;5055018;28;20818;-77
2022/03/10 00:43:46;;;;;;;6.97;4.50;;;-0.80;90.80;;;;;;5061348;28;20175;-78
2022/03/10 00:46:12;;;;;;;4.17;3.70;;;-0.80;90.90;;;;;;5059491;28;20656;-78
2022/03/10 00:48:38;;;;;;;4.20;3.77;;;-0.80;90.90;;;;;;5058616;28;20246;-78
2022/03/10 00:51:04;;;;;;;5.90;4.77;;;-0.80;90.70;;;;;;5064771;28;20193;-78
2022/03/10 00:53:30;;;;;;;5.70;4.00;;;-0.80;90.60;;;;;;5064068;28;20205;-78
2022/03/10 00:55:56;;;;;;;8.50;4.33;;;-0.80;90.60;;;;;;5059098;28;20237;-78
2022/03/10 00:58:23;;;;;;;6.40;4.23;;;-0.80;90.60;;;;;;5064879;28;20179;-78
2022/03/10 01:00:51;;;;;;;7.90;4.57;;;-0.80;90.60;;;;;;5058350;28;20180;-78
2022/03/10 01:03:17;;;;;;;4.80;3.13;;;-0.90;90.70;;;;;;5060104;28;20198;-78
2022/03/10 01:05:43;;;;;;;3.70;3.13;;;-0.90;90.70;;;;;;5057616;28;20248;-78
2022/03/10 01:08:08;;;;;;;4.63;3.33;;;-0.90;90.70;;;;;;5059292;28;20192;-77
2022/03/10 01:10:34;;;;;;;7.17;3.33;;;-0.90;90.80;;;;;;5060699;28;20230;-78
2022/03/10 01:13:00;;;;;;;8.40;3.80;;;-0.90;90.80;;;;;;5052945;28;20184;-78
2022/03/10 01:15:27;;;;;;;3.57;3.07;;;-0.90;90.80;;;;;;5056429;28;21026;-78
2022/03/10 01:17:53;;;;;;;8.77;3.43;;;-0.90;90.80;;;;;;5059595;28;20186;-78
2022/03/10 01:20:23;;;;;;;4.00;3.13;;;-0.80;90.80;;;;;;5054073;28;20187;-78
2022/03/10 01:22:50;;;;;;;4.00;3.77;;;-0.80;90.70;;;;;;5056214;28;20183;-78
2022/03/10 01:25:16;;;;;;;4.37;3.50;;;-0.80;90.40;;;;;;5052613;28;20303;-77
2022/03/10 01:27:42;;;;;;;4.23;3.67;;;-0.80;90.20;;;;;;5045765;28;20191;-77
2022/03/10 01:30:09;;;;;;;4.23;3.57;;;-0.80;90.60;;;;;;5053613;28;20853;-77
2022/03/10 01:32:35;;;;;;;4.20;3.87;;;-0.80;90.60;;;;;;5057641;28;20179;-77
2022/03/10 01:35:03;;;;;;;4.13;3.80;;;-0.90;90.70;;;;;;5052728;28;20203;-78
2022/03/10 01:37:32;;;;;;;5.70;4.20;;;-0.80;90.60;;;;;;5060637;28;20191;-77
2022/03/10 01:39:58;;;;;;;3.70;3.43;;;-0.80;90.30;;;;;;5056089;28;20183;-77
2022/03/10 01:42:24;;;;;;;3.03;2.73;;;-0.80;90.30;;;;;;5071395;28;20182;-77
2022/03/10 01:44:53;;;;;;;5.77;3.57;;;-0.80;90.40;;;;;;5060758;28;20183;-78
2022/03/10 01:47:19;;;;;;;3.33;3.13;;;-0.80;90.50;;;;;;5057235;28;20179;-78
2022/03/10 01:49:45;;;;;;;4.57;3.60;;;-0.80;90.50;;;;;;5060065;28;20670;-78
2022/03/10 01:52:11;;;;;;;2.87;2.67;;;-0.80;90.10;;;;;;5058040;28;20175;-78
2022/03/10 01:54:36;;;;;;;4.63;3.47;;;-0.70;90.00;;;;;;5064733;28;21803;-79
2022/03/10 01:57:04;;;;;;;4.37;3.37;;;-0.80;89.70;;;;;;5054577;28;20179;-78
2022/03/10 01:59:30;;;;;;;21.97;3.70;;;-0.80;89.80;;;;;;5049696;28;20183;-78
2022/03/10 02:01:55;;;;;;;4.07;3.30;;;-0.80;89.90;;;;;;5053270;28;20202;-77
2022/03/10 02:04:22;;;;;;;3.63;2.47;;;-0.80;89.80;;;;;;5057344;28;20171;-78
2022/03/10 02:06:48;;;;;;;3.47;3.03;;;-0.80;89.90;;;;;;5049862;28;20192;-77
2022/03/10 02:11:58;;;;;;;3.97;3.23;;;-0.80;90.00;;;;;;5051879;28;20698;-78
2022/03/10 02:17:20;;;;;;;6.30;3.23;;;-0.80;90.30;;;;;;5049587;28;20739;-78
2022/03/10 02:19:51;;;;;;;4.67;3.33;;;-0.80;90.30;;;;;;5051803;28;20237;-78
2022/03/10 02:22:18;;;;;;;3.87;3.03;;;-0.80;89.90;;;;;;5042562;28;20627;-77
2022/03/10 02:24:44;;;;;;;3.43;3.20;;;-0.80;90.10;;;;;;5052113;28;20180;-79
2022/03/10 02:27:18;;;;;;;4.97;3.80;;;-0.80;90.20;;;;;;5045191;28;20184;-79
2022/03/10 02:29:45;;;;;;;4.27;3.30;;;-0.70;90.20;;;;;;5053944;28;20209;-79
2022/03/10 02:32:11;;;;;;;4.30;3.57;;;-0.70;90.50;;;;;;5056452;28;20183;-79
2022/03/10 02:34:38;;;;;;;4.97;3.10;;;-0.60;90.40;;;;;;5053171;28;20192;-77
2022/03/10 02:37:04;;;;;;;2.93;2.63;;;-0.60;90.40;;;;;;5052342;28;20186;-78
2022/03/10 02:39:30;;;;;;;4.73;3.50;;;-0.60;90.50;;;;;;5052894;28;20263;-79
2022/03/10 02:41:56;;;;;;;3.77;3.07;;;-0.50;90.40;;;;;;5050554;28;20704;-79
2022/03/10 02:44:22;;;;;;;4.37;3.40;;;-0.50;90.40;;;;;;5054205;28;20567;-78
2022/03/10 02:46:48;;;;;;;3.20;2.97;;;-0.50;90.30;;;;;;5050855;28;20190;-79
2022/03/10 02:49:14;;;;;;;3.63;3.30;;;-0.40;90.20;;;;;;5060602;28;20301;-75
2022/03/10 02:51:40;;;;;;;9.00;3.77;;;-0.40;90.10;;;;;;5054400;28;20174;-78
2022/03/10 02:54:05;;;;;;;4.40;4.00;;;-0.40;90.10;;;;;;5052977;28;20725;-77
2022/03/10 02:56:31;;;;;;;5.87;3.33;;;-0.40;89.90;;;;;;5054751;28;20277;-77
2022/03/10 02:58:57;;;;;;;3.30;2.13;;;-0.50;89.50;;;;;;5051108;28;20188;-77
2022/03/10 03:01:23;;;;;;;3.20;2.93;;;-0.50;89.20;;;;;;5054838;28;20179;-77
2022/03/10 03:03:48;;;;;;;2.87;1.93;;;-0.60;88.50;;;;;;5055408;28;20893;-78
2022/03/10 03:06:14;;;;;;;4.73;3.53;;;-0.60;88.10;;;;;;5055433;28;20198;-78
2022/03/10 03:08:40;;;;;;;4.23;3.03;;;-0.70;87.80;;;;;;5056793;28;20618;-77
2022/03/10 03:11:05;;;;;;;4.27;3.17;;;-0.70;87.60;;;;;;5056981;28;20206;-77
2022/03/10 03:13:31;;;;;;;5.90;2.67;;;-0.80;87.50;;;;;;5051514;28;20203;-77
2022/03/10 03:15:57;;;;;;;4.33;3.40;;;-0.90;87.40;;;;;;5052636;28;20244;-77
2022/03/10 03:18:22;;;;;;;2.67;2.53;;;-0.90;87.50;;;;;;5051459;28;20179;-77
2022/03/10 03:20:48;;;;;;;3.03;2.83;;;-1.00;87.60;;;;;;5051253;28;20183;-77
2022/03/10 03:23:14;;;;;;;5.97;3.17;;;-1.10;87.50;;;;;;5055301;28;20562;-78
2022/03/10 03:25:39;;;;;;;3.33;2.80;;;-1.10;87.40;;;;;;5048896;28;20234;-79
2022/03/10 03:28:05;;;;;;;3.47;2.63;;;-1.20;87.40;;;;;;5054805;28;20269;-77
2022/03/10 03:30:31;;;;;;;3.70;2.73;;;-1.20;87.00;;;;;;5049718;28;20208;-77
2022/03/10 03:32:56;;;;;;;2.57;2.47;;;-1.30;86.70;;;;;;5046466;28;20283;-77
2022/03/10 03:35:22;;;;;;;3.33;2.10;;;-1.30;86.30;;;;;;5053005;28;20657;-77
2022/03/10 03:37:48;;;;;;;1.83;1.77;;;-1.40;85.70;;;;;;5053254;28;20280;-77
2022/03/10 03:40:14;;;;;;;2.43;2.23;;;-1.50;85.70;;;;;;5046846;28;20215;-76
2022/03/10 03:42:39;;;;;;;3.00;2.80;;;-1.50;85.20;;;;;;5051065;28;20680;-77
2022/03/10 03:45:06;;;;;;;2.43;2.23;;;-1.60;85.20;;;;;;5045699;28;20180;-77
2022/03/10 03:47:32;;;;;;;2.70;1.80;;;-1.60;85.10;;;;;;5055536;28;20218;-78
2022/03/10 03:49:57;;;;;;;2.67;2.30;;;-1.70;84.90;;;;;;5059784;28;20306;-78
2022/03/10 03:52:23;;;;;;;3.33;2.63;;;-1.70;84.30;;;;;;5056296;28;20236;-78
2022/03/10 03:54:49;;;;;;;2.10;1.97;;;-1.80;83.90;;;;;;5052336;28;20262;-77
2022/03/10 03:57:14;;;;;;;1.73;1.60;;;-1.90;84.40;;;;;;5056126;28;20179;-78
2022/03/10 03:59:40;;;;;;;4.00;2.00;;;-1.90;84.50;;;;;;5059365;28;20188;-77
2022/03/10 04:02:06;;;;;;;2.43;1.77;;;-1.90;84.60;;;;;;5049547;28;20191;-77
2022/03/10 04:04:32;;;;;;;1.87;1.77;;;-1.90;84.10;;;;;;5056710;28;20700;-77
2022/03/10 04:06:57;;;;;;;0.97;0.97;;;-2.00;84.20;;;;;;5055458;28;20199;-78
2022/03/10 04:09:23;;;;;;;2.20;1.13;;;-2.00;84.40;;;;;;5055254;28;20215;-79
2022/03/10 04:11:49;;;;;;;1.53;1.30;;;-2.00;83.80;;;;;;5052827;28;20445;-78
2022/03/10 04:14:17;;;;;;;1.00;1.00;;;-2.10;83.60;;;;;;5052206;28;20261;-79
2022/03/10 04:16:42;;;;;;;1.77;1.37;;;-2.10;83.40;;;;;;5048698;28;20179;-78
2022/03/10 04:19:08;;;;;;;2.17;1.63;;;-2.20;83.20;;;;;;5056687;28;20696;-78
2022/03/10 04:21:34;;;;;;;2.13;1.93;;;-2.20;82.90;;;;;;5052757;28;20213;-78
2022/03/10 04:23:59;;;;;;;1.00;1.00;;;-2.20;83.30;;;;;;5056144;28;20902;-77
2022/03/10 04:26:25;;;;;;;1.97;1.73;;;-2.20;83.50;;;;;;5049847;28;20186;-77
2022/03/10 04:28:51;;;;;;;1.10;1.10;;;-2.30;83.80;;;;;;5048194;28;20993;-77
2022/03/10 04:31:17;;;;;;;1.00;1.00;;;-2.30;83.90;;;;;;5046424;28;20180;-78
2022/03/10 04:33:43;;;;;;;1.83;1.60;;;-2.30;84.00;;;;;;5055065;28;20649;-78
2022/03/10 04:36:08;;;;;;;1.60;1.47;;;-2.30;84.30;;;;;;5053106;28;20178;-78
2022/03/10 04:38:34;;;;;;;1.43;1.33;;;-2.30;84.30;;;;;;5053587;28;20191;-78
2022/03/10 04:41:00;;;;;;;1.30;1.20;;;-2.30;84.40;;;;;;5063070;28;20191;-79
2022/03/10 04:43:26;;;;;;;0.80;0.80;;;-2.30;84.40;;;;;;5063020;28;20192;-79
2022/03/10 04:45:52;;;;;;;1.63;1.43;;;-2.30;84.40;;;;;;5061748;28;20405;-79
2022/03/10 04:48:18;;;;;;;0.70;0.70;;;-2.30;84.10;;;;;;5074591;28;20184;-78
2022/03/10 04:50:43;;;;;;;0.87;0.87;;;-2.30;83.90;;;;;;5064154;28;20290;-78
2022/03/10 04:53:09;;;;;;;4.00;1.30;;;-2.30;84.00;;;;;;5075366;28;20238;-76
2022/03/10 04:55:35;;;;;;;0.67;0.67;;;-2.30;83.80;;;;;;5064803;28;20183;-79
2022/03/10 04:58:02;;;;;;;4.63;1.50;;;-2.30;83.70;;;;;;5072947;28;20195;-78
2022/03/10 05:00:27;;;;;;;0.90;0.90;;;-2.30;83.70;;;;;;5065590;28;20189;-78
2022/03/10 05:02:53;;;;;;;0.93;0.93;;;-2.30;83.40;;;;;;5068212;28;20193;-78
2022/03/10 05:05:19;;;;;;;1.77;1.23;;;-2.30;83.20;;;;;;5053682;28;20238;-78
2022/03/10 05:07:45;;;;;;;1.00;1.00;;;-2.30;83.20;;;;;;5074666;28;20235;-78
2022/03/10 05:10:13;;;;;;;0.70;0.70;;;-2.30;83.20;;;;;;5071019;28;20215;-78
2022/03/10 05:12:50;;;;;;;1.13;0.70;;;-2.30;83.20;;;;;;5064720;28;20198;-78
2022/03/10 05:15:24;;;;;;;1.63;1.17;;;-2.30;83.20;;;;;;5075682;28;20175;-79
2022/03/10 05:17:50;;;;;;;0.57;0.57;;;-2.30;83.20;;;;;;5072673;28;20203;-78
2022/03/10 05:20:17;;;;;;;0.60;0.60;;;-2.30;83.00;;;;;;5073725;28;20233;-78
2022/03/10 05:22:50;;;;;;;2.63;1.10;;;-2.30;83.00;;;;;;5062428;28;20191;-78
2022/03/10 05:25:17;;;;;;;1.00;1.00;;;-2.30;83.20;;;;;;5056310;28;20244;-77
2022/03/10 05:27:44;;;;;;;1.43;1.27;;;-2.30;83.20;;;;;;5051973;28;20187;-77
2022/03/10 05:30:10;;;;;;;0.70;0.70;;;-2.20;83.20;;;;;;5052671;28;20273;-77
2022/03/10 05:32:37;;;;;;;1.47;1.13;;;-2.20;83.30;;;;;;5052796;28;20190;-77
2022/03/10 05:35:04;;;;;;;1.63;1.40;;;-2.20;83.30;;;;;;5053457;28;20582;-77
2022/03/10 05:37:35;;;;;;;1.80;1.70;;;-2.20;83.40;;;;;;5043826;28;20187;-78
2022/03/10 05:40:04;;;;;;;1.40;1.30;;;-2.10;83.40;;;;;;5057225;28;20182;-78
2022/03/10 05:42:30;;;;;;;2.90;2.00;;;-2.10;83.40;;;;;;5049534;28;20262;-77
2022/03/10 05:44:56;;;;;;;1.63;1.53;;;-2.00;83.30;;;;;;5052468;28;20183;-77
2022/03/10 05:47:21;;;;;;;2.03;1.93;;;-2.00;83.30;;;;;;5045933;28;20786;-78
2022/03/10 05:49:49;;;;;;;1.73;1.30;;;-2.00;82.80;;;;;;5048854;28;20219;-74
2022/03/10 05:52:15;;;;;;;1.87;1.77;;;-2.00;83.00;;;;;;5046648;28;20176;-74
2022/03/10 05:54:41;;;;;;;2.27;1.30;;;-1.90;82.80;;;;;;5046794;28;20180;-73
2022/03/10 05:57:08;;;;;;;2.00;1.57;;;-1.90;82.80;;;;;;5081834;28;20183;-74
2022/03/10 05:59:33;;;;;;;2.53;1.90;;;-1.90;82.50;;;;;;5047454;28;21054;-74
2022/03/10 06:01:59;;;;;;;1.80;1.70;;;-1.80;82.80;;;;;;5052103;28;20254;-74
2022/03/10 06:04:25;;;;;;;2.23;1.43;;;-1.70;82.70;;;;;;5049351;28;20763;-73
2022/03/10 06:06:50;;;;;;;3.80;1.73;;;-1.70;82.60;;;;;;5052862;28;20787;-76
2022/03/10 06:09:16;;;;;;;3.37;1.93;;;-1.60;82.00;;;;;;5052922;28;20210;-73
2022/03/10 06:11:43;;;;;;;1.33;1.23;;;-1.60;82.00;;;;;;5045025;28;20186;-75
2022/03/10 06:14:11;;;;;;;1.70;1.53;;;-1.50;81.30;;;;;;5048434;28;20190;-74
2022/03/10 06:16:37;;;;;;;2.73;1.97;;;-1.60;80.50;;;;;;5049253;28;20770;-73
2022/03/10 06:19:03;;;;;;;2.80;2.50;;;-1.60;80.60;;;;;;5048023;28;20195;-73
2022/03/10 06:21:29;;;;;;;1.63;1.53;;;-1.60;81.10;;;;;;5041147;28;20930;-73
2022/03/10 06:23:55;;;;;;;1.97;1.87;;;-1.60;80.80;;;;;;5048225;28;20178;-73
2022/03/10 06:26:21;;;;;;;2.13;1.93;;;-1.60;80.90;;;;;;5050857;28;20669;-74
2022/03/10 06:28:47;;;;;;;3.63;1.20;;;-1.60;81.10;;;;;;5052836;28;20214;-74
2022/03/10 06:31:13;;;;;;;1.57;1.47;;;-1.60;80.90;;;;;;5046024;28;20191;-74
2022/03/10 06:33:39;;;;;;;1.47;1.40;;;-1.50;80.70;;;;;;5051019;28;20178;-74
2022/03/10 06:36:05;;;;;;;1.10;1.10;;;-1.50;80.10;;;;;;5046362;28;20187;-74
2022/03/10 06:38:32;;;;;;;1.70;1.67;;;-1.50;79.60;;;;;;5053366;28;20569;-73
2022/03/10 06:40:59;;;;;;;0.93;0.70;;;-1.40;79.30;;;;;;5042129;28;20186;-73
2022/03/10 06:43:24;;;;;;;0.63;0.63;;;-1.30;79.20;;;;;;5048605;28;20669;-72
2022/03/10 06:45:50;;;;;;;0.87;0.87;;;-1.30;78.40;;;;;;5047784;28;20183;-73
2022/03/10 06:48:16;;;;;;;0.73;0.60;;;-1.20;78.00;;;;;;5046713;28;20191;-72
2022/03/10 06:50:41;;;;;;;1.10;0.83;;;-1.20;76.80;;;;;;5052613;28;20336;-73
2022/03/10 06:53:07;;;;;;;1.90;0.97;;;-1.10;76.30;;;;;;5051425;28;20207;-72
2022/03/10 06:55:33;;;;;;;0.60;0.60;;;-1.10;75.90;;;;;;5045074;28;20186;-73
2022/03/10 06:57:58;;;;;;;0.60;0.60;;;-1.00;74.40;;;;;;5051937;28;20281;-73
2022/03/10 07:00:24;;;;;;;0.50;0.50;;;-1.00;74.20;;;;;;5058694;28;20219;-72
2022/03/10 07:02:52;;;;;;;1.07;1.03;;;-1.00;73.40;;;;;;5053773;28;20175;-72
2022/03/10 07:05:18;;;;;;;2.47;0.60;;;-1.00;74.00;;;;;;5044008;28;21047;-72
2022/03/10 07:07:44;;;;;;;2.07;0.67;;;-1.00;74.40;;;;;;5049625;28;20182;-73
2022/03/10 07:10:12;;;;;;;0.67;0.67;;;-0.90;73.70;;;;;;5056740;28;20380;-72
2022/03/10 07:12:39;;;;;;;0.80;0.80;;;-0.90;73.80;;;;;;5055590;28;20292;-72
2022/03/10 07:15:07;;;;;;;0.80;0.80;;;-0.80;73.90;;;;;;5053906;28;20186;-73
2022/03/10 07:17:33;;;;;;;0.50;0.50;;;-0.80;73.30;;;;;;5053216;28;20275;-73
2022/03/10 07:19:59;;;;;;;0.70;0.70;;;-0.70;73.00;;;;;;5056231;28;20182;-73
2022/03/10 07:22:25;;;;;;;0.90;0.90;;;-0.60;72.60;;;;;;5053597;28;20178;-72
2022/03/10 07:24:52;;;;;;;1.33;0.73;;;-0.60;72.90;;;;;;5058924;28;20248;-72
2022/03/10 07:27:18;;;;;;;0.80;0.80;;;-0.50;72.80;;;;;;5051234;28;20180;-72
2022/03/10 07:29:44;;;;;;;0.90;0.90;;;-0.40;71.50;;;;;;5052848;28;20203;-72
2022/03/10 07:32:10;;;;;;;0.70;0.70;;;-0.40;71.80;;;;;;5054923;28;20343;-72
2022/03/10 07:34:35;;;;;;;0.93;0.90;;;-0.30;71.90;;;;;;5056445;28;20272;-72
2022/03/10 07:37:01;;;;;;;0.60;0.60;;;-0.20;72.20;;;;;;5059201;28;20259;-72
2022/03/10 07:39:27;;;;;;;0.80;0.77;;;-0.10;71.90;;;;;;5059452;28;20665;-72
2022/03/10 07:41:53;;;;;;;1.53;0.90;;;0.00;71.70;;;;;;5058257;28;20183;-71
2022/03/10 07:44:19;;;;;;;0.83;0.83;;;0.20;71.20;;;;;;5059880;28;20183;-72
2022/03/10 07:46:45;;;;;;;0.60;0.60;;;0.30;69.10;;;;;;5059423;28;20203;-72
2022/03/10 07:49:11;;;;;;;0.57;0.57;;;0.30;69.70;;;;;;5054555;28;20199;-72
2022/03/10 07:51:39;;;;;;;0.70;0.70;;;0.50;69.90;;;;;;5059163;28;20710;-72
2022/03/10 07:54:04;;;;;;;0.50;0.50;;;0.70;68.90;;;;;;5049514;28;20172;-71
2022/03/10 07:56:30;;;;;;;0.70;0.70;;;0.90;67.80;;;;;;5055787;28;20198;-72
2022/03/10 07:58:56;;;;;;;1.00;1.00;;;1.00;65.50;;;;;;5059958;28;20262;-72
2022/03/10 08:01:21;;;;;;;1.97;0.73;;;1.10;66.00;;;;;;5059739;28;20179;-72
2022/03/10 08:03:47;;;;;;;1.07;1.00;;;1.30;68.10;;;;;;5054122;28;20700;-72
2022/03/10 08:06:13;;;;;;;1.70;0.87;;;1.90;68.30;;;;;;5055593;28;20599;-72
2022/03/10 08:08:39;;;;;;;0.97;0.97;;;2.60;67.10;;;;;;5052771;28;20628;-72
2022/03/10 08:11:08;;;;;;;1.10;1.10;;;3.40;66.00;;;;;;5056640;28;20210;-72
2022/03/10 08:13:34;;;;;;;1.17;0.97;;;3.90;63.50;;;;;;5056273;28;20203;-72
2022/03/10 08:16:00;;;;;;;1.97;1.03;;;4.20;62.80;;;;;;5053882;28;20633;-72
2022/03/10 08:18:27;;;;;;;1.60;1.10;;;4.60;61.90;;;;;;5048833;28;20186;-72
2022/03/10 08:20:55;;;;;;;1.13;1.13;;;5.20;62.50;;;;;;5053509;28;20179;-72
2022/03/10 08:23:21;;;;;;;1.50;1.40;;;5.90;60.50;;;;;;5053174;28;20722;-72
2022/03/10 08:25:47;;;;;;;1.43;1.43;;;6.50;60.50;;;;;;5051931;28;20182;-72
2022/03/10 08:28:13;;;;;;;1.83;1.73;;;7.20;59.70;;;;;;5050894;28;20176;-72
2022/03/10 08:30:39;;;;;;;2.03;1.67;;;7.90;58.50;;;;;;5051762;28;20708;-72
2022/03/10 08:33:05;;;;;;;2.73;1.53;;;8.20;56.80;;;;;;5056321;28;20215;-72
2022/03/10 08:35:31;;;;;;;1.73;1.63;;;8.40;55.90;;;;;;5054193;28;20554;-72
2022/03/10 08:37:57;;;;;;;1.47;1.43;;;8.30;55.50;;;;;;5060727;28;20293;-72
2022/03/10 08:40:23;;;;;;;1.70;1.70;;;8.10;54.40;;;;;;5052843;28;20183;-72
2022/03/10 08:42:50;;;;;;;1.13;1.13;;;7.50;53.00;;;;;;5050698;28;20217;-72
2022/03/10 08:45:17;;;;;;;1.60;1.50;;;6.90;54.10;;;;;;5058633;28;20186;-73
2022/03/10 08:47:43;;;;;;;1.90;1.80;;;6.50;55.60;;;;;;5050829;28;20396;-72
2022/03/10 08:50:11;;;;;;;1.77;1.77;;;6.20;55.40;;;;;;5054278;28;20219;-73
2022/03/10 08:52:37;;;;;;;1.20;1.20;;;5.70;56.10;;;;;;5059074;28;20185;-72
2022/03/10 08:55:05;;;;;;;1.70;1.60;;;5.30;57.30;;;;;;5056600;28;22155;-72
2022/03/10 08:57:31;;;;;;;1.83;1.20;;;4.90;57.30;;;;;;5054443;28;20174;-72
2022/03/10 08:59:57;;;;;;;1.33;1.30;;;4.60;58.30;;;;;;5055337;28;20699;-72
2022/03/10 09:02:23;;;;;;;0.97;0.90;;;4.30;59.10;;;;;;5051714;28;20265;-72
2022/03/10 09:04:49;;;;;;;1.30;1.20;;;4.20;59.00;;;;;;5056224;28;20272;-74
2022/03/10 09:07:14;;;;;;;0.90;0.90;;;4.10;59.40;;;;;;5048865;28;20262;-73
2022/03/10 09:09:40;;;;;;;1.10;1.10;;;4.10;59.20;;;;;;5052496;28;20238;-73
2022/03/10 09:12:06;;;;;;;1.07;1.07;;;4.20;59.10;;;;;;5053878;28;20182;-73
2022/03/10 09:14:32;;;;;;;0.87;0.87;;;4.40;58.50;;;;;;5055979;28;20182;-73
2022/03/10 09:16:58;;;;;;;0.80;0.80;;;4.40;57.20;;;;;;5055168;28;20175;-73
2022/03/10 09:19:23;;;;;;;1.00;1.00;;;4.30;57.20;;;;;;5043894;28;20184;-73
2022/03/10 09:21:49;;;;;;;0.80;0.80;;;4.20;57.00;;;;;;5044538;28;20187;-73
2022/03/10 09:24:15;;;;;;;1.00;1.00;;;4.00;57.10;;;;;;5048847;28;20195;-73
2022/03/10 09:26:41;;;;;;;1.10;1.10;;;3.90;57.20;;;;;;5048401;28;20203;-72
2022/03/10 09:29:07;;;;;;;4.37;0.97;;;3.80;56.90;;;;;;5049847;28;20208;-72
2022/03/10 09:31:33;;;;;;;0.97;0.97;;;3.80;58.90;;;;;;5044933;28;20176;-71
2022/03/10 09:33:59;;;;;;;0.50;0.50;;;4.60;61.10;;;;;;5050147;28;20190;-71
2022/03/10 09:36:26;;;;;;;1.60;0.93;;;5.90;59.80;;;;;;5049127;28;20228;-72
2022/03/10 09:38:53;;;;;;;0.80;0.80;;;7.40;57.10;;;;;;5038638;28;20188;-72
2022/03/10 09:41:19;;;;;;;0.90;0.83;;;8.70;55.60;;;;;;5051542;28;20186;-72
2022/03/10 09:43:47;;;;;;;1.97;1.00;;;10.00;53.50;;;;;;5043388;28;20188;-72
2022/03/10 09:46:13;;;;;;;1.20;1.20;;;11.10;52.70;;;;;;5043719;28;20211;-73
2022/03/10 09:48:39;;;;;;;1.30;0.87;;;11.50;50.70;;;;;;5043804;28;20211;-72
2022/03/10 09:51:06;;;;;;;1.10;1.10;;;11.50;48.80;;;;;;5051447;28;20223;-72
2022/03/10 09:53:34;;;;;;;1.13;1.13;;;11.60;48.70;;;;;;5048845;28;20695;-72
2022/03/10 09:56:02;;;;;;;1.00;0.87;;;12.10;49.80;;;;;;5048189;28;20179;-72
2022/03/10 09:58:28;;;;;;;1.10;1.10;;;13.00;52.20;;;;;;5046616;28;20611;-72
2022/03/10 10:01:02;;;;;;;1.27;1.17;;;14.10;48.60;;;;;;5045347;28;20184;-72
2022/03/10 10:03:28;;;;;;;1.02;1.02;;;15.00;46.00;;;;;;5045252;28;20215;-72
2022/03/10 10:05:59;;;;;;;1.10;1.10;;;15.70;46.60;;;;;;5051476;28;20198;-72
2022/03/10 10:08:25;;;;;;;0.63;0.63;;;16.40;44.70;;;;;;5054159;28;20179;-73
2022/03/10 10:10:53;;;;;;;2.58;1.30;;;17.10;45.00;;;;;;5055663;28;20229;-72
2022/03/10 10:13:34;;;;;;;0.90;0.90;;;17.50;43.20;;;;;;5043850;28;20645;-72
2022/03/10 10:16:09;;;;;;;2.80;1.50;;;17.70;42.00;;;;;;5044243;28;20207;-72
2022/03/10 10:18:36;;;;;;;1.75;1.65;;;18.10;42.90;;;;;;5046332;28;20185;-73
2022/03/10 10:21:05;;;;;;;1.45;1.38;;;18.20;42.80;;;;;;5051264;28;20660;-71
2022/03/10 10:23:35;;;;;;;2.65;1.58;;;17.80;42.40;;;;;;5053767;28;20642;-72
2022/03/10 10:26:07;;;;;;;1.13;1.13;;;16.90;40.60;;;;;;5051004;28;20270;-72
2022/03/10 10:28:36;;;;;;;1.25;1.25;;;15.70;41.50;;;;;;5054601;28;20189;-73
2022/03/10 10:31:13;;;;;;;1.10;1.10;;;14.40;41.30;;;;;;5054457;28;20716;-72
2022/03/10 10:33:41;;;;;;;1.42;1.42;;;13.50;43.00;;;;;;5039215;28;20191;-71
2022/03/10 10:36:23;;;;;;;1.27;1.27;;;12.70;43.40;;;;;;5045768;28;20198;-72
2022/03/10 10:38:50;;;;;;;1.30;1.30;;;12.40;44.90;;;;;;5049876;28;20225;-71
2022/03/10 10:41:22;;;;;;;1.30;1.30;;;12.30;44.90;;;;;;5047507;28;20179;-72
2022/03/10 10:44:08;;;;;;;1.30;1.30;;;11.90;44.00;;;;;;5048341;28;20175;-72
2022/03/10 10:46:39;;;;;;;1.30;1.20;;;11.50;44.80;;;;;;5049760;28;20203;-72
2022/03/10 10:49:10;;;;;;;1.40;1.40;;;12.00;45.50;;;;;;5043638;28;20609;-71
2022/03/10 10:51:38;;;;;;;1.63;1.48;;;12.30;44.10;;;;;;5045811;28;20189;-71
2022/03/10 10:54:06;;;;;;;1.60;1.50;;;12.10;44.30;;;;;;5051099;28;20184;-71
2022/03/10 10:56:34;;;;;;;0.90;0.90;;;12.30;45.60;;;;;;5043891;28;20241;-72
2022/03/10 10:59:02;;;;;;;0.93;0.93;;;13.10;46.20;;;;;;5046882;28;20278;-73
2022/03/10 11:01:27;;;;;;;2.92;1.00;;;13.90;45.00;;;;;;5045353;28;20183;-72
2022/03/10 11:03:53;;;;;;;1.83;1.20;;;14.70;42.90;;;;;;5052005;28;20195;-73
2022/03/10 11:06:21;;;;;;;1.10;1.10;;;15.50;42.10;;;;;;5048183;28;20198;-72
2022/03/10 11:08:47;;;;;;;1.98;1.40;;;16.00;42.50;;;;;;5051774;28;20187;-72
2022/03/10 11:11:15;;;;;;;1.25;1.25;;;16.20;42.40;;;;;;5053031;28;20187;-72
2022/03/10 11:13:44;;;;;;;1.45;1.35;;;15.90;40.60;;;;;;5053351;28;20184;-72
2022/03/10 11:16:11;;;;;;;1.25;1.17;;;15.10;41.20;;;;;;5051003;28;20175;-72
2022/03/10 11:18:40;;;;;;;1.40;1.30;;;14.00;42.20;;;;;;5050959;28;20277;-72
2022/03/10 11:21:43;;;;;;;1.58;1.20;;;13.10;43.70;;;;;;5047609;28;20769;-72
2022/03/10 11:24:51;;;;;;;2.35;1.20;;;12.10;43.50;;;;;;5051622;28;20184;-73
2022/03/10 11:27:21;;;;;;;1.05;1.05;;;10.90;43.40;;;;;;5053447;28;20691;-72
2022/03/10 11:29:52;;;;;;;1.55;1.55;;;10.10;44.60;;;;;;5048135;28;20215;-73
2022/03/10 11:32:18;;;;;;;1.40;1.30;;;9.60;46.20;;;;;;5043007;28;20182;-73
2022/03/10 11:34:53;;;;;;;1.30;1.30;;;9.00;47.20;;;;;;5047435;28;20247;-73
2022/03/10 11:37:43;;;;;;;1.25;1.25;;;8.50;47.60;;;;;;5046533;28;20186;-73
2022/03/10 11:40:14;;;;;;;1.33;1.33;;;8.20;48.70;;;;;;5048287;28;20253;-73
2022/03/10 11:42:40;;;;;;;1.63;1.52;;;8.50;49.60;;;;;;5040968;28;20187;-72
2022/03/10 11:45:12;;;;;;;1.98;1.85;;;8.70;49.80;;;;;;5054830;28;20192;-72
2022/03/10 11:47:39;;;;;;;1.60;1.50;;;8.80;50.10;;;;;;5045622;28;20202;-72
2022/03/10 11:50:23;;;;;;;2.35;1.80;;;9.20;50.80;;;;;;5048603;28;20852;-72
2022/03/10 11:53:05;;;;;;;1.33;1.33;;;10.10;50.70;;;;;;5046001;28;20176;-72
2022/03/10 11:55:40;;;;;;;3.63;1.35;;;11.20;49.90;;;;;;5051914;28;20175;-72
2022/03/10 11:58:10;;;;;;;1.20;1.20;;;12.30;48.10;;;;;;5055207;28;20183;-72
2022/03/10 12:00:44;;;;;;;1.13;1.00;;;13.00;45.70;;;;;;5046238;28;20184;-72
2022/03/10 12:03:17;;;;;;;1.13;1.13;;;13.70;45.30;;;;;;5051872;28;20267;-73
2022/03/10 12:06:02;;;;;;;1.10;1.10;;;14.60;43.40;;;;;;5052933;28;20191;-72
2022/03/10 12:08:38;;;;;;;2.95;1.30;;;14.80;41.90;;;;;;5050553;28;20184;-72
2022/03/10 12:11:06;;;;;;;1.42;1.42;;;14.40;41.40;;;;;;5055249;28;20265;-73
2022/03/10 12:13:34;;;;;;;2.10;1.45;;;13.80;42.30;;;;;;5053603;28;20484;-73
2022/03/10 12:16:03;;;;;;;1.20;1.20;;;13.20;41.90;;;;;;5054871;28;20273;-72
2022/03/10 12:18:30;;;;;;;1.00;1.00;;;12.50;42.80;;;;;;5051592;28;20629;-72
2022/03/10 12:20:58;;;;;;;1.70;1.60;;;12.30;42.60;;;;;;5052957;28;20881;-73
2022/03/10 12:23:26;;;;;;;1.80;1.80;;;11.90;44.50;;;;;;5052869;28;20218;-73
2022/03/10 12:25:57;;;;;;;1.83;1.75;;;11.40;45.20;;;;;;5055838;28;20202;-73
2022/03/10 12:28:33;;;;;;;1.98;1.88;;;11.00;46.30;;;;;;5052418;28;20245;-73
2022/03/10 12:31:06;;;;;;;2.22;1.98;;;11.00;46.70;;;;;;5048118;28;20222;-73
2022/03/10 12:33:32;;;;;;;1.73;1.70;;;11.60;47.20;;;;;;5049425;28;20217;-73
2022/03/10 12:36:01;;;;;;;1.98;1.88;;;12.30;46.20;;;;;;5049378;28;20187;-73
2022/03/10 12:38:45;;;;;;;1.80;1.70;;;13.00;45.30;;;;;;5044464;28;20180;-73
2022/03/10 12:41:14;;;;;;;1.73;1.70;;;13.80;45.20;;;;;;5047609;28;20262;-73
2022/03/10 12:43:39;;;;;;;1.95;1.85;;;14.50;43.00;;;;;;5057150;28;20175;-73
2022/03/10 12:46:05;;;;;;;1.70;1.60;;;14.90;43.60;;;;;;5055573;28;20176;-73
2022/03/10 12:48:58;;;;;;;1.65;1.65;;;15.10;43.40;;;;;;5045963;28;20517;-71
2022/03/10 12:51:30;;;;;;;1.65;1.65;;;14.80;43.20;;;;;;5055579;28;20175;-73
2022/03/10 12:53:57;;;;;;;1.67;1.55;;;14.70;42.90;;;;;;5049631;28;20182;-72
2022/03/10 12:56:23;;;;;;;1.98;1.88;;;14.70;42.90;;;;;;5048157;28;20215;-72